Lenox Township, Michigan
Current Conditions -  °F | °C
As of 12:58 AM on Sunday 26 Oct 2014 (Local Time) from KMTC Reporting Station
Clear Clear  
Wind Chill: 54°   Ceiling: Unl
Heat Index: 54°   Visibility: 10mi
Dew Point: 31°   Wind: 12mph
Humidity: 42%   Direction: 300°WNW
Pressure: 29.77"   Gusts: 21mph
Location:  42.7851°N, 82.803°W
Report Text: KMTC 260458Z AUTO 30010G18KT 10SM CLR 12/00 A2977 RMK AO2 SLP085 T01221004 401940080
Loading
Personal Weather Stations






























Interactive Weather Map
Tropical Storm Tracking
New forecast layout! Learn more

10-Day Weather Forecast

Advertisements
Track Severe Weather on mobile